createdAt,value
2022-08-28T00:03:41.354Z,99584.39
2022-08-28T00:08:44.867Z,99584.70
2022-08-28T00:13:48.955Z,99588.50
2022-08-28T00:18:52.312Z,99588.79
2022-08-28T00:23:56.234Z,99588.36
2022-08-28T00:28:59.439Z,99580.61
2022-08-28T00:34:03.571Z,99574.17
2022-08-28T00:39:08.331Z,99572.20
2022-08-28T00:44:16.132Z,99568.17
2022-08-28T00:49:25.380Z,99560.53
2022-08-28T00:54:33.296Z,99559.96
2022-08-28T00:59:37.838Z,99560.14
2022-08-28T01:04:42.174Z,99560.48
2022-08-28T01:09:49.178Z,99562.91
2022-08-28T01:14:56.374Z,99558.80
2022-08-28T01:20:06.137Z,99558.77
2022-08-28T01:25:14.669Z,99559.40
2022-08-28T01:30:20.289Z,99557.31
2022-08-28T01:35:32.042Z,99554.08
2022-08-28T01:40:46.004Z,99552.52
2022-08-28T01:45:54.544Z,99554.67
2022-08-28T01:50:58.155Z,99559.89
2022-08-28T01:56:04.914Z,99563.50
2022-08-28T02:01:17.895Z,99565.81
2022-08-28T02:06:21.303Z,99564.72
2022-08-28T02:11:26.319Z,99566.11
2022-08-28T02:16:29.864Z,99560.36
2022-08-28T02:21:33.280Z,99556.36
2022-08-28T02:26:36.793Z,99557.80
2022-08-28T02:31:40.513Z,99556.23
2022-08-28T02:36:44.237Z,99554.79
2022-08-28T02:41:47.646Z,99550.06
2022-08-28T02:46:52.186Z,99551.71
2022-08-28T02:51:58.469Z,99554.05
2022-08-28T02:57:01.986Z,99553.14
2022-08-28T03:02:07.798Z,99553.55
2022-08-28T03:07:14.032Z,99553.44
2022-08-28T03:12:17.549Z,99547.65
2022-08-28T03:17:22.397Z,99548.01
2022-08-28T03:22:44.552Z,99549.92
2022-08-28T03:27:47.859Z,99549.81
2022-08-28T03:32:51.271Z,99545.77
2022-08-28T03:37:54.582Z,99540.98
2022-08-28T03:42:58.612Z,99545.98
2022-08-28T03:48:04.163Z,99545.64
2022-08-28T03:53:07.900Z,99544.76
2022-08-28T03:58:11.230Z,99548.05
2022-08-28T04:03:22.664Z,99549.10
2022-08-28T04:08:26.428Z,99551.05
2022-08-28T04:13:30.148Z,99556.95
2022-08-28T04:18:33.769Z,99560.75
2022-08-28T04:23:40.866Z,99561.42
2022-08-28T04:28:44.894Z,99561.12
2022-08-28T04:33:48.307Z,99559.22
2022-08-28T04:38:51.829Z,99563.25
2022-08-28T04:43:57.553Z,99554.41
2022-08-28T04:49:01.005Z,99553.71
2022-08-28T04:54:04.929Z,99553.52
2022-08-28T04:59:08.806Z,99551.14
2022-08-28T05:04:12.782Z,99544.52
2022-08-28T05:09:19.368Z,99550.54
2022-08-28T05:14:22.883Z,99555.02
2022-08-28T05:19:28.146Z,99557.56
2022-08-28T05:24:31.451Z,99562.87
2022-08-28T05:29:34.762Z,99565.20
2022-08-28T05:34:38.175Z,99563.24
2022-08-28T05:39:41.690Z,99562.59
2022-08-28T05:44:45.000Z,99563.24
2022-08-28T05:49:48.313Z,99564.86
2022-08-28T05:54:56.127Z,99561.33
2022-08-28T05:59:59.848Z,99565.09
2022-08-28T06:05:03.159Z,99572.86
2022-08-28T06:10:07.693Z,99577.25
2022-08-28T06:15:14.492Z,99578.44
2022-08-28T06:20:18.009Z,99580.60
2022-08-28T06:25:21.216Z,99578.98
2022-08-28T06:30:24.630Z,99583.14
2022-08-28T06:35:28.044Z,99584.92
2022-08-28T06:40:31.623Z,99591.38
2022-08-28T06:45:41.448Z,99592.28
2022-08-28T06:50:49.957Z,99594.52
2022-08-28T06:56:02.767Z,99600.70
2022-08-28T07:01:17.456Z,99600.55
2022-08-28T07:06:22.678Z,99604.14
2022-08-28T07:11:29.427Z,99608.56
2022-08-28T07:16:38.513Z,99613.36
2022-08-28T07:21:57.455Z,99616.80
2022-08-28T07:27:18.328Z,99623.19
2022-08-28T07:32:22.241Z,99621.05
2022-08-28T07:37:25.701Z,99623.48
2022-08-28T07:42:47.649Z,99624.23
2022-08-28T07:47:51.701Z,99623.78
2022-08-28T07:52:56.252Z,99621.27
2022-08-28T07:58:00.757Z,99625.38
2022-08-28T08:03:04.031Z,99623.63
2022-08-28T08:08:08.094Z,99623.44
2022-08-28T08:13:11.404Z,99627.36
2022-08-28T08:18:18.809Z,99625.77
2022-08-28T08:23:24.786Z,99625.86
2022-08-28T08:28:28.916Z,99625.42
2022-08-28T08:33:32.839Z,99631.02
2022-08-28T08:38:41.818Z,99627.11
2022-08-28T08:43:56.470Z,99628.30
2022-08-28T08:49:18.919Z,99626.39
2022-08-28T08:54:25.980Z,99628.83
2022-08-28T08:59:32.402Z,99626.58
2022-08-28T09:04:41.654Z,99625.79
2022-08-28T09:09:53.773Z,99632.05
2022-08-28T09:15:10.188Z,99632.92
2022-08-28T09:20:32.350Z,99634.13
2022-08-28T09:25:56.543Z,99635.64
2022-08-28T09:31:19.555Z,99633.96
2022-08-28T09:36:24.335Z,99633.89
2022-08-28T09:41:46.312Z,99638.27
2022-08-28T09:46:52.459Z,99639.38
2022-08-28T09:51:59.791Z,99628.54
2022-08-28T09:57:04.290Z,99626.11
2022-08-28T10:02:14.093Z,99623.92
2022-08-28T10:07:35.733Z,99626.00
2022-08-28T10:12:55.225Z,99631.63
2022-08-28T10:18:18.299Z,99630.14
2022-08-28T10:23:57.250Z,99627.45
2022-08-28T10:29:09.669Z,99624.41
2022-08-28T10:34:35.201Z,99620.30
2022-08-28T10:39:44.246Z,99622.23
2022-08-28T10:45:04.747Z,99620.98
2022-08-28T10:50:41.249Z,99623.60
2022-08-28T10:56:15.075Z,99624.73
2022-08-28T11:01:33.390Z,99617.98
2022-08-28T11:06:43.305Z,99625.95
2022-08-28T11:11:49.431Z,99622.99
2022-08-28T11:16:57.414Z,99623.95
2022-08-28T11:22:13.513Z,99620.96
2022-08-28T11:27:37.575Z,99616.91
2022-08-28T11:32:53.006Z,99615.27
2022-08-28T11:37:58.264Z,99617.28
2022-08-28T11:43:17.012Z,99617.15
2022-08-28T11:48:23.725Z,99614.22
2022-08-28T11:53:38.095Z,99611.61
2022-08-28T11:59:01.272Z,99617.70
2022-08-28T12:04:15.745Z,99618.17
2022-08-28T12:09:40.767Z,99615.02
2022-08-28T12:14:46.635Z,99613.59
2022-08-28T12:19:56.216Z,99614.46
2022-08-28T12:25:07.083Z,99616.60
2022-08-28T12:30:11.110Z,99618.92
2022-08-28T12:35:20.926Z,99618.89
2022-08-28T12:40:38.164Z,99617.08
2022-08-28T12:45:50.027Z,99618.25
2022-08-28T12:51:04.703Z,99613.36
2022-08-28T12:56:13.343Z,99608.76
2022-08-28T13:01:25.474Z,99604.27
2022-08-28T13:06:33.172Z,99613.65
2022-08-28T13:11:45.590Z,99608.21
2022-08-28T13:16:49.152Z,99599.84
2022-08-28T13:22:32.967Z,99601.05
2022-08-28T13:27:36.689Z,99598.86
2022-08-28T13:32:59.864Z,99594.36
2022-08-28T13:38:09.900Z,99596.81
2022-08-28T13:43:15.853Z,99592.17
2022-08-28T13:48:23.623Z,99589.14
2022-08-28T13:53:27.035Z,99587.58
2022-08-28T13:58:30.354Z,99585.20
2022-08-28T14:03:38.443Z,99581.88
2022-08-28T14:08:43.931Z,99579.59
2022-08-28T14:13:55.533Z,99577.29
2022-08-28T14:19:04.995Z,99577.38
2022-08-28T14:24:08.610Z,99570.76
2022-08-28T14:29:13.727Z,99567.30
2022-08-28T14:34:20.283Z,99564.69
2022-08-28T14:39:26.027Z,99566.67
2022-08-28T14:44:29.327Z,99568.23
2022-08-28T14:49:32.639Z,99572.94
2022-08-28T14:54:35.849Z,99580.45
2022-08-28T14:59:39.776Z,99584.05
2022-08-28T15:04:43.293Z,99586.04
2022-08-28T15:09:46.703Z,99585.95
2022-08-28T15:14:55.290Z,99587.01
2022-08-28T15:20:01.412Z,99587.65
2022-08-28T15:25:06.272Z,99588.98
2022-08-28T15:30:11.731Z,99581.00
2022-08-28T15:35:16.467Z,99571.35
2022-08-28T15:40:39.230Z,99556.15
2022-08-28T15:45:43.199Z,99538.67
2022-08-28T15:50:46.673Z,99533.57
2022-08-28T15:55:51.319Z,99528.39
2022-08-28T16:00:54.698Z,99540.44
2022-08-28T16:05:58.041Z,99556.56
2022-08-28T16:11:01.363Z,99564.42
2022-08-28T16:16:05.038Z,99591.66
2022-08-28T16:21:09.672Z,99606.05
2022-08-28T16:26:16.099Z,99620.02
2022-08-28T16:31:20.741Z,99643.52
2022-08-28T16:36:25.585Z,99655.52
2022-08-28T16:41:29.208Z,99653.64
2022-08-28T16:46:35.305Z,99649.53
2022-08-28T16:51:39.820Z,99639.51
2022-08-28T16:56:43.131Z,99623.17
2022-08-28T17:01:47.178Z,99609.54
2022-08-28T17:06:56.510Z,99602.30
2022-08-28T17:12:00.743Z,99611.22
2022-08-28T17:17:04.261Z,99613.52
2022-08-28T17:22:27.241Z,99619.39
2022-08-28T17:27:32.463Z,99617.83
2022-08-28T17:32:36.114Z,99617.19
2022-08-28T17:37:41.110Z,99620.95
2022-08-28T17:42:45.995Z,99627.96
2022-08-28T17:47:49.519Z,99629.67
2022-08-28T17:52:53.140Z,99636.94
2022-08-28T17:57:56.242Z,99646.02
2022-08-28T18:03:00.373Z,99656.97
2022-08-28T18:08:05.530Z,99659.52
2022-08-28T18:13:08.940Z,99657.51
2022-08-28T18:18:15.368Z,99655.14
2022-08-28T18:23:19.043Z,99655.48
2022-08-28T18:28:24.247Z,99663.19
2022-08-28T18:33:27.920Z,99666.90
2022-08-28T18:38:35.325Z,99661.02
2022-08-28T18:43:38.636Z,99658.89
2022-08-28T18:48:43.381Z,99660.36
2022-08-28T18:53:47.102Z,99661.30
2022-08-28T18:58:52.256Z,99664.86
2022-08-28T19:03:55.771Z,99665.35
2022-08-28T19:08:59.184Z,99653.45
2022-08-28T19:14:03.667Z,99653.00
2022-08-28T19:19:09.013Z,99652.57
2022-08-28T19:24:16.693Z,99652.55
2022-08-28T19:29:20.521Z,99651.92
2022-08-28T19:34:24.088Z,99651.16
2022-08-28T19:39:28.060Z,99650.33
2022-08-28T19:44:31.371Z,99648.56
2022-08-28T19:49:34.988Z,99649.42
2022-08-28T19:54:40.858Z,99652.80
2022-08-28T19:59:44.994Z,99661.31
2022-08-28T20:04:48.608Z,99668.81
2022-08-28T20:09:52.436Z,99669.80
2022-08-28T20:14:59.029Z,99669.95
2022-08-28T20:20:10.691Z,99675.19
2022-08-28T20:25:15.881Z,99682.63
2022-08-28T20:30:19.191Z,99685.39
2022-08-28T20:35:24.585Z,99695.20
2022-08-28T20:40:31.187Z,99695.36
2022-08-28T20:45:36.600Z,99697.00
2022-08-28T20:50:39.910Z,99704.27
2022-08-28T20:55:43.323Z,99709.38
2022-08-28T21:00:47.247Z,99713.48
2022-08-28T21:05:51.377Z,99720.65
2022-08-28T21:10:54.586Z,99742.89
2022-08-28T21:15:57.916Z,99765.33
2022-08-28T21:21:04.075Z,99788.84
2022-08-28T21:26:11.742Z,99802.48
2022-08-28T21:31:15.726Z,99813.21
2022-08-28T21:36:19.438Z,99827.95
2022-08-28T21:41:22.541Z,99835.61
2022-08-28T21:46:26.118Z,99849.54
2022-08-28T21:51:29.369Z,99853.45
2022-08-28T21:56:33.292Z,99856.81
2022-08-28T22:01:36.665Z,99857.77
2022-08-28T22:06:40.939Z,99849.98
2022-08-28T22:11:44.456Z,99824.66
2022-08-28T22:16:47.888Z,99819.98
2022-08-28T22:22:09.918Z,99817.67
2022-08-28T22:27:14.252Z,99808.93
2022-08-28T22:32:17.730Z,99795.66
2022-08-28T22:37:21.591Z,99778.66
2022-08-28T22:42:24.695Z,99766.27
2022-08-28T22:47:28.882Z,99758.01
2022-08-28T22:52:32.755Z,99745.52
2022-08-28T22:57:36.167Z,99726.99
2022-08-28T23:02:40.743Z,99720.75
2022-08-28T23:07:44.426Z,99718.84
2022-08-28T23:12:47.838Z,99725.75
2022-08-28T23:17:51.149Z,99737.63
2022-08-28T23:22:58.198Z,99748.36
2022-08-28T23:28:06.273Z,99754.48
2022-08-28T23:33:10.095Z,99765.17
2022-08-28T23:38:13.660Z,99760.64
2022-08-28T23:43:18.149Z,99758.62
2022-08-28T23:48:22.076Z,99766.27
2022-08-28T23:53:25.485Z,99778.14
2022-08-28T23:58:31.803Z,99778.02
